createdAt,value
2023-02-12T00:01:40.725Z,124.70
2023-02-12T00:05:43.450Z,121.22
2023-02-12T00:09:47.681Z,116.30
2023-02-12T00:13:50.747Z,117.50
2023-02-12T00:17:53.605Z,114.93
2023-02-12T00:21:57.366Z,121.55
2023-02-12T00:26:01.886Z,121.47
2023-02-12T00:30:05.070Z,114.57
2023-02-12T00:34:07.846Z,119.80
2023-02-12T00:38:10.838Z,113.95
2023-02-12T00:42:15.020Z,113.80
2023-02-12T00:46:18.095Z,114.57
2023-02-12T00:50:21.032Z,109.97
2023-02-12T00:54:23.863Z,107.93
2023-02-12T00:58:28.153Z,99.55
2023-02-12T01:02:30.966Z,112.47
2023-02-12T01:06:33.727Z,108.85
2023-02-12T01:10:36.477Z,107.65
2023-02-12T01:14:40.710Z,119.40
2023-02-12T01:18:44.576Z,111.72
2023-02-12T01:22:47.720Z,116.15
2023-02-12T01:26:50.525Z,122.25
2023-02-12T01:30:54.773Z,115.90
2023-02-12T01:34:57.688Z,116.03
2023-02-12T01:39:02.768Z,122.00
2023-02-12T01:43:08.276Z,121.97
2023-02-12T01:47:18.726Z,129.63
2023-02-12T01:51:22.853Z,118.50
2023-02-12T01:55:26.072Z,114.18
2023-02-12T01:59:29.737Z,121.38
2023-02-12T02:03:34.918Z,117.13
2023-02-12T02:07:42.515Z,111.85
2023-02-12T02:12:02.719Z,127.10
2023-02-12T02:16:23.495Z,124.45
2023-02-12T02:21:01.891Z,109.57
2023-02-12T02:25:43.556Z,112.30
2023-02-12T02:30:10.371Z,110.97
2023-02-12T02:34:19.211Z,124.25
2023-02-12T02:38:27.684Z,108.78
2023-02-12T02:42:36.022Z,112.97
2023-02-12T02:46:44.050Z,113.93
2023-02-12T02:50:50.576Z,111.68
2023-02-12T02:54:57.605Z,106.20
2023-02-12T02:59:04.711Z,104.20
2023-02-12T03:03:19.591Z,96.82
2023-02-12T03:07:27.102Z,99.93
2023-02-12T03:11:33.449Z,103.75
2023-02-12T03:15:41.074Z,103.65
2023-02-12T03:19:51.499Z,98.90
2023-02-12T03:24:02.480Z,97.70
2023-02-12T03:28:10.710Z,91.70
2023-02-12T03:32:25.428Z,94.95
2023-02-12T03:36:39.399Z,103.10
2023-02-12T03:40:47.476Z,96.43
2023-02-12T03:44:55.219Z,104.90
2023-02-12T03:49:03.147Z,99.15
2023-02-12T03:53:07.613Z,101.75
2023-02-12T03:57:14.761Z,109.45
2023-02-12T04:01:19.576Z,98.68
2023-02-12T04:05:25.108Z,96.57
2023-02-12T04:09:29.867Z,100.22
2023-02-12T04:13:42.798Z,114.68
2023-02-12T04:17:51.631Z,102.70
2023-02-12T04:22:07.473Z,105.60
2023-02-12T04:26:22.699Z,103.80
2023-02-12T04:30:29.825Z,102.55
2023-02-12T04:34:39.219Z,105.88
2023-02-12T04:38:45.999Z,107.97
2023-02-12T04:42:51.762Z,105.45
2023-02-12T04:46:54.956Z,107.00
2023-02-12T04:50:57.781Z,113.85
2023-02-12T04:55:00.645Z,100.43
2023-02-12T04:59:05.144Z,115.80
2023-02-12T05:03:08.014Z,103.93
2023-02-12T05:07:12.474Z,96.55
2023-02-12T05:11:15.284Z,104.10
2023-02-12T05:15:19.619Z,94.18
2023-02-12T05:19:22.618Z,89.63
2023-02-12T05:23:28.416Z,105.05
2023-02-12T05:27:31.202Z,91.90
2023-02-12T05:31:35.634Z,101.72
2023-02-12T05:35:38.552Z,105.18
2023-02-12T05:39:41.469Z,105.00
2023-02-12T05:43:46.534Z,88.22
2023-02-12T05:47:51.989Z,93.75
2023-02-12T05:51:54.801Z,98.07
2023-02-12T05:56:13.918Z,103.38
2023-02-12T06:00:17.587Z,100.65
2023-02-12T06:04:23.984Z,109.78
2023-02-12T06:08:26.873Z,97.38
2023-02-12T06:12:29.718Z,104.82
2023-02-12T06:16:32.900Z,95.35
2023-02-12T06:20:39.724Z,99.13
2023-02-12T06:24:42.655Z,104.82
2023-02-12T06:28:45.836Z,105.00
2023-02-12T06:32:50.655Z,105.07
2023-02-12T06:36:54.893Z,98.50
2023-02-12T06:40:57.675Z,102.07
2023-02-12T06:45:00.604Z,100.03
2023-02-12T06:49:03.525Z,104.75
2023-02-12T06:53:07.635Z,102.47
2023-02-12T06:57:10.925Z,97.90
2023-02-12T07:01:17.669Z,102.53
2023-02-12T07:05:20.599Z,96.93
2023-02-12T07:09:25.150Z,84.72
2023-02-12T07:13:27.947Z,95.50
2023-02-12T07:17:31.030Z,92.80
2023-02-12T07:21:33.877Z,89.35
2023-02-12T07:25:37.998Z,93.30
2023-02-12T07:29:40.792Z,83.70
2023-02-12T07:33:44.499Z,89.28
2023-02-12T07:37:47.286Z,80.63
2023-02-12T07:41:51.337Z,87.95
2023-02-12T07:45:54.340Z,83.57
2023-02-12T07:49:57.363Z,90.00
2023-02-12T07:54:00.927Z,89.97
2023-02-12T07:58:04.967Z,82.50
2023-02-12T08:02:07.882Z,92.28
2023-02-12T08:06:12.131Z,90.15
2023-02-12T08:10:14.915Z,86.85
2023-02-12T08:14:21.126Z,87.03
2023-02-12T08:18:23.948Z,98.07
2023-02-12T08:22:26.771Z,96.25
2023-02-12T08:26:31.020Z,92.53
2023-02-12T08:30:35.058Z,92.93
2023-02-12T08:34:37.812Z,99.18
2023-02-12T08:38:42.568Z,95.72
2023-02-12T08:42:45.277Z,90.25
2023-02-12T08:46:51.241Z,94.13
2023-02-12T08:50:54.042Z,92.22
2023-02-12T08:54:56.878Z,94.55
2023-02-12T08:59:00.436Z,81.47
2023-02-12T09:03:04.596Z,83.93
2023-02-12T09:07:09.603Z,86.60
2023-02-12T09:11:16.449Z,85.82
2023-02-12T09:15:19.163Z,80.72
2023-02-12T09:19:23.555Z,76.78
2023-02-12T09:23:26.296Z,72.97
2023-02-12T09:27:31.262Z,71.65
2023-02-12T09:31:34.627Z,64.63
2023-02-12T09:35:40.247Z,61.72
2023-02-12T09:39:43.054Z,60.90
2023-02-12T09:43:52.837Z,64.53
2023-02-12T09:48:02.997Z,63.05
2023-02-12T09:52:14.071Z,51.53
2023-02-12T09:56:19.417Z,59.30
2023-02-12T10:00:25.400Z,51.65
2023-02-12T10:04:29.725Z,52.97
2023-02-12T10:08:48.341Z,54.58
2023-02-12T10:12:55.179Z,49.60
2023-02-12T10:17:04.712Z,56.47
2023-02-12T10:21:17.696Z,54.53
2023-02-12T10:25:28.126Z,53.70
2023-02-12T10:29:35.755Z,52.25
2023-02-12T10:33:42.833Z,47.92
2023-02-12T10:37:51.360Z,54.45
2023-02-12T10:42:00.183Z,52.08
2023-02-12T10:46:02.942Z,55.63
2023-02-12T10:50:20.643Z,54.88
2023-02-12T10:54:38.124Z,53.85
2023-02-12T10:58:51.416Z,53.22
2023-02-12T11:03:03.979Z,49.88
2023-02-12T11:07:09.714Z,44.75
2023-02-12T11:11:15.418Z,44.95
2023-02-12T11:15:22.811Z,45.42
2023-02-12T11:19:27.661Z,42.38
2023-02-12T11:23:32.148Z,43.60
2023-02-12T11:27:34.939Z,43.15
2023-02-12T11:31:41.603Z,39.88
2023-02-12T11:35:53.264Z,33.50
2023-02-12T11:39:56.032Z,34.60
2023-02-12T11:43:58.754Z,32.72
2023-02-12T11:48:03.470Z,32.00
2023-02-12T11:52:07.457Z,27.65
2023-02-12T11:56:12.666Z,28.67
2023-02-12T12:00:18.948Z,26.95
2023-02-12T12:04:33.935Z,26.65
2023-02-12T12:08:42.389Z,29.35
2023-02-12T12:12:50.594Z,28.35
2023-02-12T12:17:17.178Z,27.42
2023-02-12T12:21:29.428Z,30.60
2023-02-12T12:25:37.479Z,29.23
2023-02-12T12:29:50.491Z,32.65
2023-02-12T12:33:59.161Z,28.90
2023-02-12T12:38:13.279Z,31.00
2023-02-12T12:42:47.166Z,33.35
2023-02-12T12:47:06.113Z,29.80
2023-02-12T12:51:19.926Z,30.55
2023-02-12T12:55:45.330Z,33.50
2023-02-12T13:00:15.447Z,32.80
2023-02-12T13:04:53.888Z,32.95
2023-02-12T13:09:12.196Z,32.10
2023-02-12T13:13:26.260Z,26.60
2023-02-12T13:17:36.792Z,24.45
2023-02-12T13:21:49.599Z,26.65
2023-02-12T13:26:01.527Z,27.98
2023-02-12T13:30:18.922Z,27.15
2023-02-12T13:34:23.253Z,24.45
2023-02-12T13:38:29.556Z,24.52
2023-02-12T13:42:44.073Z,16.40
2023-02-12T13:46:56.993Z,15.02
2023-02-12T13:51:08.898Z,14.98
2023-02-12T13:55:24.634Z,15.52
2023-02-12T13:59:48.945Z,13.32
2023-02-12T14:03:53.065Z,15.45
2023-02-12T14:07:58.403Z,13.95
2023-02-12T14:12:02.514Z,13.95
2023-02-12T14:16:21.651Z,14.00
2023-02-12T14:20:31.430Z,15.07
2023-02-12T14:24:51.997Z,12.02
2023-02-12T14:28:57.582Z,12.25
2023-02-12T14:33:22.004Z,13.43
2023-02-12T14:37:38.907Z,13.73
2023-02-12T14:41:42.516Z,13.73
2023-02-12T14:45:45.318Z,16.40
2023-02-12T14:49:54.348Z,13.75
2023-02-12T14:54:01.807Z,18.92
2023-02-12T14:58:07.773Z,19.23
2023-02-12T15:02:18.180Z,18.05
2023-02-12T15:06:23.405Z,17.35
2023-02-12T15:10:32.632Z,17.63
2023-02-12T15:14:40.922Z,17.38
2023-02-12T15:18:51.593Z,18.55
2023-02-12T15:22:54.829Z,15.73
2023-02-12T15:27:01.378Z,20.20
2023-02-12T15:31:10.240Z,16.48
2023-02-12T15:35:27.139Z,16.10
2023-02-12T15:39:40.652Z,16.15
2023-02-12T15:43:44.812Z,19.90
2023-02-12T15:47:58.124Z,15.40
2023-02-12T15:52:04.127Z,14.85
2023-02-12T15:56:13.363Z,15.90
2023-02-12T16:00:32.092Z,15.30
2023-02-12T16:04:37.646Z,18.63
2023-02-12T16:08:42.244Z,17.63
2023-02-12T16:12:45.669Z,14.65
2023-02-12T16:16:51.392Z,15.70
2023-02-12T16:21:04.748Z,15.50
2023-02-12T16:25:18.238Z,19.27
2023-02-12T16:29:21.799Z,14.48
2023-02-12T16:33:36.801Z,15.45
2023-02-12T16:37:46.102Z,16.92
2023-02-12T16:41:56.177Z,22.50
2023-02-12T16:46:07.238Z,19.33
2023-02-12T16:50:18.654Z,21.70
2023-02-12T16:54:29.945Z,17.15
2023-02-12T16:58:33.071Z,17.48
2023-02-12T17:02:37.281Z,21.23
2023-02-12T17:06:41.522Z,20.77
2023-02-12T17:10:48.201Z,20.77
2023-02-12T17:14:52.821Z,23.17
2023-02-12T17:18:59.719Z,20.85
2023-02-12T17:23:08.117Z,23.63
2023-02-12T17:27:13.731Z,21.05
2023-02-12T17:31:17.271Z,19.45
2023-02-12T17:35:20.293Z,19.38
2023-02-12T17:39:24.353Z,20.13
2023-02-12T17:43:27.193Z,21.02
2023-02-12T17:47:32.116Z,20.63
2023-02-12T17:51:35.546Z,21.38
2023-02-12T17:55:41.212Z,19.02
2023-02-12T17:59:44.851Z,22.33
2023-02-12T18:03:48.355Z,21.63
2023-02-12T18:07:51.393Z,19.98
2023-02-12T18:11:55.848Z,23.88
2023-02-12T18:15:58.708Z,23.48
2023-02-12T18:20:02.247Z,21.80
2023-02-12T18:24:09.976Z,18.23
2023-02-12T18:28:15.126Z,25.98
2023-02-12T18:32:19.041Z,17.45
2023-02-12T18:36:25.061Z,18.02
2023-02-12T18:40:27.909Z,21.27
2023-02-12T18:44:32.126Z,20.65
2023-02-12T18:48:35.195Z,19.08
2023-02-12T18:52:37.952Z,15.30
2023-02-12T18:56:43.645Z,18.40
2023-02-12T19:00:47.770Z,16.40
2023-02-12T19:04:50.715Z,15.00
2023-02-12T19:08:58.988Z,16.08
2023-02-12T19:13:01.884Z,15.65
2023-02-12T19:17:05.957Z,16.35
2023-02-12T19:21:10.064Z,18.83
2023-02-12T19:25:12.818Z,19.65
2023-02-12T19:29:15.542Z,18.40
2023-02-12T19:33:19.975Z,18.30
2023-02-12T19:37:22.998Z,14.15
2023-02-12T19:41:27.912Z,14.77
2023-02-12T19:45:33.301Z,14.98
2023-02-12T19:49:37.971Z,16.67
2023-02-12T19:53:40.799Z,13.68
2023-02-12T19:57:43.599Z,13.70
2023-02-12T20:01:47.683Z,12.20
2023-02-12T20:05:54.902Z,12.10
2023-02-12T20:09:58.957Z,12.52
2023-02-12T20:14:02.804Z,13.10
2023-02-12T20:18:06.971Z,15.75
2023-02-12T20:22:11.021Z,13.88
2023-02-12T20:26:15.367Z,13.50
2023-02-12T20:30:18.601Z,12.70
2023-02-12T20:34:22.061Z,13.45
2023-02-12T20:38:54.192Z,11.77
2023-02-12T20:42:56.942Z,12.23
2023-02-12T20:47:00.621Z,12.77
2023-02-12T20:51:07.813Z,12.40
2023-02-12T20:55:12.066Z,11.82
2023-02-12T20:59:14.828Z,12.90
2023-02-12T21:03:17.608Z,12.07
2023-02-12T21:07:21.342Z,11.15
2023-02-12T21:11:27.022Z,9.93
2023-02-12T21:15:29.808Z,10.32
2023-02-12T21:19:34.632Z,12.38
2023-02-12T21:23:43.813Z,9.65
2023-02-12T21:27:47.844Z,9.05
2023-02-12T21:31:51.385Z,8.77
2023-02-12T21:35:54.589Z,9.38
2023-02-12T21:39:57.475Z,9.43
2023-02-12T21:44:06.246Z,8.93
2023-02-12T21:48:09.067Z,8.73
2023-02-12T21:52:12.021Z,9.68
2023-02-12T21:56:15.174Z,10.82
2023-02-12T22:00:20.305Z,11.90
2023-02-12T22:04:23.149Z,11.63
2023-02-12T22:08:25.956Z,11.18
2023-02-12T22:12:32.162Z,9.05
2023-02-12T22:16:37.669Z,9.32
2023-02-12T22:20:40.451Z,11.20
2023-02-12T22:24:43.203Z,10.85
2023-02-12T22:28:47.864Z,10.35
2023-02-12T22:32:51.893Z,10.93
2023-02-12T22:36:54.657Z,11.20
2023-02-12T22:40:57.749Z,11.23
2023-02-12T22:45:00.728Z,11.45
2023-02-12T22:49:06.964Z,11.80
2023-02-12T22:53:09.681Z,12.60
2023-02-12T22:57:12.447Z,11.18
2023-02-12T23:01:17.698Z,11.10
2023-02-12T23:05:22.009Z,12.60
2023-02-12T23:09:24.808Z,13.13
2023-02-12T23:13:29.930Z,15.38
2023-02-12T23:17:33.840Z,16.08
2023-02-12T23:21:43.734Z,14.77
2023-02-12T23:25:47.000Z,15.45
2023-02-12T23:29:55.579Z,14.70
2023-02-12T23:34:38.009Z,17.52
2023-02-12T23:38:50.189Z,15.82
2023-02-12T23:42:53.601Z,14.27
2023-02-12T23:47:34.472Z,16.67
2023-02-12T23:51:39.931Z,19.45
2023-02-12T23:55:44.035Z,17.73
2023-02-12T23:59:46.765Z,20.67
